sensor_id;sensor_type;location;lat;lon;timestamp;P1;durP1;ratioP1;P2;durP2;ratioP2
18162;SDS011;9206;50.994;4.538;2023-04-24T00:01:58;18.70;;;12.20;;
18162;SDS011;9206;50.994;4.538;2023-04-24T00:04:48;18.50;;;12.70;;
18162;SDS011;9206;50.994;4.538;2023-04-24T00:07:43;20.23;;;13.33;;
18162;SDS011;9206;50.994;4.538;2023-04-24T00:10:37;17.67;;;11.57;;
18162;SDS011;9206;50.994;4.538;2023-04-24T00:13:30;21.13;;;13.13;;
18162;SDS011;9206;50.994;4.538;2023-04-24T00:16:25;24.67;;;12.70;;
18162;SDS011;9206;50.994;4.538;2023-04-24T00:19:13;18.40;;;11.93;;
18162;SDS011;9206;50.994;4.538;2023-04-24T00:22:07;21.83;;;12.40;;
18162;SDS011;9206;50.994;4.538;2023-04-24T00:24:57;20.27;;;12.27;;
18162;SDS011;9206;50.994;4.538;2023-04-24T00:27:48;17.00;;;12.00;;
18162;SDS011;9206;50.994;4.538;2023-04-24T00:33:29;23.07;;;13.30;;
18162;SDS011;9206;50.994;4.538;2023-04-24T00:36:23;20.50;;;12.70;;
18162;SDS011;9206;50.994;4.538;2023-04-24T00:42:17;17.93;;;11.93;;
18162;SDS011;9206;50.994;4.538;2023-04-24T00:45:07;18.13;;;12.23;;
18162;SDS011;9206;50.994;4.538;2023-04-24T00:47:58;18.50;;;11.70;;
18162;SDS011;9206;50.994;4.538;2023-04-24T00:51:00;23.77;;;12.33;;
18162;SDS011;9206;50.994;4.538;2023-04-24T00:53:54;19.63;;;12.17;;
18162;SDS011;9206;50.994;4.538;2023-04-24T00:56:56;20.07;;;12.33;;
18162;SDS011;9206;50.994;4.538;2023-04-24T01:00:11;21.60;;;11.43;;
18162;SDS011;9206;50.994;4.538;2023-04-24T01:03:16;15.53;;;11.43;;
18162;SDS011;9206;50.994;4.538;2023-04-24T01:06:07;13.27;;;10.93;;
18162;SDS011;9206;50.994;4.538;2023-04-24T01:08:57;17.40;;;10.83;;
18162;SDS011;9206;50.994;4.538;2023-04-24T01:11:47;24.90;;;13.53;;
18162;SDS011;9206;50.994;4.538;2023-04-24T01:14:41;23.13;;;12.60;;
18162;SDS011;9206;50.994;4.538;2023-04-24T01:17:30;20.10;;;11.60;;
18162;SDS011;9206;50.994;4.538;2023-04-24T01:20:20;19.80;;;11.60;;
18162;SDS011;9206;50.994;4.538;2023-04-24T01:23:09;20.47;;;12.10;;
18162;SDS011;9206;50.994;4.538;2023-04-24T01:25:57;17.37;;;12.07;;
18162;SDS011;9206;50.994;4.538;2023-04-24T01:31:59;18.07;;;11.83;;
18162;SDS011;9206;50.994;4.538;2023-04-24T01:34:48;20.30;;;12.80;;
18162;SDS011;9206;50.994;4.538;2023-04-24T01:37:35;17.43;;;11.23;;
18162;SDS011;9206;50.994;4.538;2023-04-24T01:40:31;18.47;;;11.97;;
18162;SDS011;9206;50.994;4.538;2023-04-24T01:43:25;16.10;;;12.03;;
18162;SDS011;9206;50.994;4.538;2023-04-24T01:52:05;12.47;;;11.00;;
18162;SDS011;9206;50.994;4.538;2023-04-24T01:54:59;16.40;;;11.90;;
18162;SDS011;9206;50.994;4.538;2023-04-24T01:57:49;16.80;;;10.90;;
18162;SDS011;9206;50.994;4.538;2023-04-24T02:03:30;15.30;;;10.53;;
18162;SDS011;9206;50.994;4.538;2023-04-24T02:06:21;15.03;;;10.87;;
18162;SDS011;9206;50.994;4.538;2023-04-24T02:09:11;13.70;;;10.90;;
18162;SDS011;9206;50.994;4.538;2023-04-24T02:12:01;12.77;;;9.90;;
18162;SDS011;9206;50.994;4.538;2023-04-24T02:14:56;14.27;;;10.30;;
18162;SDS011;9206;50.994;4.538;2023-04-24T02:17:48;13.23;;;9.40;;
18162;SDS011;9206;50.994;4.538;2023-04-24T02:20:39;13.60;;;9.57;;
18162;SDS011;9206;50.994;4.538;2023-04-24T02:23:28;9.70;;;8.63;;
18162;SDS011;9206;50.994;4.538;2023-04-24T02:26:19;10.40;;;8.77;;
18162;SDS011;9206;50.994;4.538;2023-04-24T02:32:09;13.87;;;9.17;;
18162;SDS011;9206;50.994;4.538;2023-04-24T02:37:49;12.40;;;9.03;;
18162;SDS011;9206;50.994;4.538;2023-04-24T02:40:40;14.30;;;9.77;;
18162;SDS011;9206;50.994;4.538;2023-04-24T02:43:32;10.60;;;9.53;;
18162;SDS011;9206;50.994;4.538;2023-04-24T02:46:26;10.30;;;9.30;;
18162;SDS011;9206;50.994;4.538;2023-04-24T02:49:18;12.43;;;10.20;;
18162;SDS011;9206;50.994;4.538;2023-04-24T02:52:11;15.40;;;10.60;;
18162;SDS011;9206;50.994;4.538;2023-04-24T02:55:06;15.60;;;10.00;;
18162;SDS011;9206;50.994;4.538;2023-04-24T02:57:57;10.83;;;9.73;;
18162;SDS011;9206;50.994;4.538;2023-04-24T03:00:55;10.60;;;9.50;;
18162;SDS011;9206;50.994;4.538;2023-04-24T03:03:45;13.47;;;10.27;;
18162;SDS011;9206;50.994;4.538;2023-04-24T03:09:31;11.13;;;10.03;;
18162;SDS011;9206;50.994;4.538;2023-04-24T03:12:21;10.70;;;9.60;;
18162;SDS011;9206;50.994;4.538;2023-04-24T03:15:16;13.37;;;9.93;;
18162;SDS011;9206;50.994;4.538;2023-04-24T03:18:07;11.87;;;10.50;;
18162;SDS011;9206;50.994;4.538;2023-04-24T03:20:54;11.53;;;10.37;;
18162;SDS011;9206;50.994;4.538;2023-04-24T03:23:49;13.77;;;9.83;;
18162;SDS011;9206;50.994;4.538;2023-04-24T03:26:38;14.67;;;10.30;;
18162;SDS011;9206;50.994;4.538;2023-04-24T03:29:32;13.97;;;10.90;;
18162;SDS011;9206;50.994;4.538;2023-04-24T03:32:21;11.57;;;9.87;;
18162;SDS011;9206;50.994;4.538;2023-04-24T03:38:00;13.00;;;10.23;;
18162;SDS011;9206;50.994;4.538;2023-04-24T03:40:51;11.30;;;9.93;;
18162;SDS011;9206;50.994;4.538;2023-04-24T03:46:54;9.17;;;8.20;;
18162;SDS011;9206;50.994;4.538;2023-04-24T03:49:48;10.87;;;8.03;;
18162;SDS011;9206;50.994;4.538;2023-04-24T03:52:36;8.63;;;7.50;;
18162;SDS011;9206;50.994;4.538;2023-04-24T03:55:27;8.80;;;8.07;;
18162;SDS011;9206;50.994;4.538;2023-04-24T03:58:16;8.83;;;8.03;;
18162;SDS011;9206;50.994;4.538;2023-04-24T04:01:06;10.57;;;8.13;;
18162;SDS011;9206;50.994;4.538;2023-04-24T04:03:55;9.13;;;8.27;;
18162;SDS011;9206;50.994;4.538;2023-04-24T04:06:42;9.03;;;8.13;;
18162;SDS011;9206;50.994;4.538;2023-04-24T04:09:37;9.10;;;7.97;;
18162;SDS011;9206;50.994;4.538;2023-04-24T04:12:28;8.57;;;7.87;;
18162;SDS011;9206;50.994;4.538;2023-04-24T04:15:29;9.23;;;8.20;;
18162;SDS011;9206;50.994;4.538;2023-04-24T04:18:17;8.40;;;7.73;;
18162;SDS011;9206;50.994;4.538;2023-04-24T04:21:11;8.57;;;7.87;;
18162;SDS011;9206;50.994;4.538;2023-04-24T04:24:04;8.43;;;7.57;;
18162;SDS011;9206;50.994;4.538;2023-04-24T04:27:00;9.37;;;8.40;;
18162;SDS011;9206;50.994;4.538;2023-04-24T04:29:48;11.57;;;7.93;;
18162;SDS011;9206;50.994;4.538;2023-04-24T04:32:40;10.23;;;9.13;;
18162;SDS011;9206;50.994;4.538;2023-04-24T04:35:40;8.83;;;7.33;;
18162;SDS011;9206;50.994;4.538;2023-04-24T04:38:28;9.20;;;8.60;;
18162;SDS011;9206;50.994;4.538;2023-04-24T04:41:26;9.17;;;8.27;;
18162;SDS011;9206;50.994;4.538;2023-04-24T04:44:15;9.30;;;6.97;;
18162;SDS011;9206;50.994;4.538;2023-04-24T04:47:08;10.10;;;8.13;;
18162;SDS011;9206;50.994;4.538;2023-04-24T04:50:05;13.20;;;9.27;;
18162;SDS011;9206;50.994;4.538;2023-04-24T04:52:59;11.87;;;8.97;;
18162;SDS011;9206;50.994;4.538;2023-04-24T04:55:47;18.47;;;11.33;;
18162;SDS011;9206;50.994;4.538;2023-04-24T04:58:38;17.27;;;12.07;;
18162;SDS011;9206;50.994;4.538;2023-04-24T05:01:31;21.33;;;13.23;;
18162;SDS011;9206;50.994;4.538;2023-04-24T05:04:23;21.60;;;14.00;;
18162;SDS011;9206;50.994;4.538;2023-04-24T05:07:19;19.97;;;13.63;;
18162;SDS011;9206;50.994;4.538;2023-04-24T05:10:07;18.13;;;12.97;;
18162;SDS011;9206;50.994;4.538;2023-04-24T05:12:57;20.17;;;13.00;;
18162;SDS011;9206;50.994;4.538;2023-04-24T05:15:52;20.03;;;13.87;;
18162;SDS011;9206;50.994;4.538;2023-04-24T05:18:47;17.53;;;12.43;;
18162;SDS011;9206;50.994;4.538;2023-04-24T05:21:40;21.23;;;12.73;;
18162;SDS011;9206;50.994;4.538;2023-04-24T05:24:37;13.77;;;11.80;;
18162;SDS011;9206;50.994;4.538;2023-04-24T05:27:24;15.23;;;11.57;;
18162;SDS011;9206;50.994;4.538;2023-04-24T05:30:13;16.23;;;11.43;;
18162;SDS011;9206;50.994;4.538;2023-04-24T05:33:06;15.70;;;10.93;;
18162;SDS011;9206;50.994;4.538;2023-04-24T05:36:14;15.57;;;10.73;;
18162;SDS011;9206;50.994;4.538;2023-04-24T05:39:29;18.53;;;11.30;;
18162;SDS011;9206;50.994;4.538;2023-04-24T05:42:20;17.07;;;11.50;;
18162;SDS011;9206;50.994;4.538;2023-04-24T05:49:05;15.60;;;11.03;;
18162;SDS011;9206;50.994;4.538;2023-04-24T05:51:56;17.30;;;11.50;;
18162;SDS011;9206;50.994;4.538;2023-04-24T05:54:45;17.43;;;11.07;;
18162;SDS011;9206;50.994;4.538;2023-04-24T05:57:35;15.33;;;10.93;;
18162;SDS011;9206;50.994;4.538;2023-04-24T06:00:32;18.67;;;11.07;;
18162;SDS011;9206;50.994;4.538;2023-04-24T06:03:34;13.50;;;11.37;;
18162;SDS011;9206;50.994;4.538;2023-04-24T06:06:27;13.77;;;10.93;;
18162;SDS011;9206;50.994;4.538;2023-04-24T06:09:23;20.23;;;11.93;;
18162;SDS011;9206;50.994;4.538;2023-04-24T06:12:18;17.27;;;9.97;;
18162;SDS011;9206;50.994;4.538;2023-04-24T06:15:10;18.73;;;10.90;;
18162;SDS011;9206;50.994;4.538;2023-04-24T06:18:05;16.23;;;10.93;;
18162;SDS011;9206;50.994;4.538;2023-04-24T06:21:15;12.87;;;10.40;;
18162;SDS011;9206;50.994;4.538;2023-04-24T06:24:14;16.20;;;11.17;;
18162;SDS011;9206;50.994;4.538;2023-04-24T06:31:05;19.43;;;12.47;;
18162;SDS011;9206;50.994;4.538;2023-04-24T06:34:07;21.90;;;12.63;;
18162;SDS011;9206;50.994;4.538;2023-04-24T06:37:29;19.50;;;13.67;;
18162;SDS011;9206;50.994;4.538;2023-04-24T06:40:22;19.27;;;12.83;;
18162;SDS011;9206;50.994;4.538;2023-04-24T06:44:11;18.27;;;12.90;;
18162;SDS011;9206;50.994;4.538;2023-04-24T06:47:25;21.67;;;12.50;;
18162;SDS011;9206;50.994;4.538;2023-04-24T06:53:04;22.23;;;13.43;;
18162;SDS011;9206;50.994;4.538;2023-04-24T06:56:07;17.97;;;13.03;;
18162;SDS011;9206;50.994;4.538;2023-04-24T06:59:10;22.67;;;12.73;;
18162;SDS011;9206;50.994;4.538;2023-04-24T07:02:03;18.60;;;14.23;;
18162;SDS011;9206;50.994;4.538;2023-04-24T07:05:07;23.83;;;14.30;;
18162;SDS011;9206;50.994;4.538;2023-04-24T07:10:49;22.83;;;14.30;;
18162;SDS011;9206;50.994;4.538;2023-04-24T07:20:07;19.03;;;11.67;;
18162;SDS011;9206;50.994;4.538;2023-04-24T07:22:59;15.30;;;11.73;;
18162;SDS011;9206;50.994;4.538;2023-04-24T07:26:04;16.90;;;11.80;;
18162;SDS011;9206;50.994;4.538;2023-04-24T07:28:51;14.53;;;10.80;;
18162;SDS011;9206;50.994;4.538;2023-04-24T07:31:46;18.87;;;9.77;;
18162;SDS011;9206;50.994;4.538;2023-04-24T07:34:39;12.53;;;9.17;;
18162;SDS011;9206;50.994;4.538;2023-04-24T07:40:30;14.10;;;8.20;;
18162;SDS011;9206;50.994;4.538;2023-04-24T07:43:24;14.53;;;6.97;;
18162;SDS011;9206;50.994;4.538;2023-04-24T07:46:12;12.20;;;6.47;;
18162;SDS011;9206;50.994;4.538;2023-04-24T07:49:08;20.87;;;6.40;;
18162;SDS011;9206;50.994;4.538;2023-04-24T07:52:09;14.53;;;5.83;;
18162;SDS011;9206;50.994;4.538;2023-04-24T07:55:13;14.40;;;5.63;;
18162;SDS011;9206;50.994;4.538;2023-04-24T07:58:03;10.93;;;4.57;;
18162;SDS011;9206;50.994;4.538;2023-04-24T08:00:52;9.23;;;5.03;;
18162;SDS011;9206;50.994;4.538;2023-04-24T08:03:40;11.50;;;4.93;;
18162;SDS011;9206;50.994;4.538;2023-04-24T08:06:28;10.13;;;4.50;;
18162;SDS011;9206;50.994;4.538;2023-04-24T08:09:18;15.57;;;5.67;;
18162;SDS011;9206;50.994;4.538;2023-04-24T08:12:13;6.63;;;4.97;;
18162;SDS011;9206;50.994;4.538;2023-04-24T08:15:04;12.77;;;5.80;;
18162;SDS011;9206;50.994;4.538;2023-04-24T08:21:03;14.03;;;7.40;;
18162;SDS011;9206;50.994;4.538;2023-04-24T08:24:08;17.27;;;7.60;;
18162;SDS011;9206;50.994;4.538;2023-04-24T08:27:00;15.33;;;8.30;;
18162;SDS011;9206;50.994;4.538;2023-04-24T08:29:51;17.20;;;7.23;;
18162;SDS011;9206;50.994;4.538;2023-04-24T08:33:02;20.83;;;5.67;;
18162;SDS011;9206;50.994;4.538;2023-04-24T08:35:55;10.80;;;4.83;;
18162;SDS011;9206;50.994;4.538;2023-04-24T08:38:50;10.87;;;5.47;;
18162;SDS011;9206;50.994;4.538;2023-04-24T08:41:37;12.57;;;5.50;;
18162;SDS011;9206;50.994;4.538;2023-04-24T08:44:35;7.47;;;5.07;;
18162;SDS011;9206;50.994;4.538;2023-04-24T08:47:26;10.90;;;5.10;;
18162;SDS011;9206;50.994;4.538;2023-04-24T08:50:15;9.05;;;4.90;;
18162;SDS011;9206;50.994;4.538;2023-04-24T08:53:09;10.10;;;5.07;;
18162;SDS011;9206;50.994;4.538;2023-04-24T08:56:03;8.20;;;4.43;;
18162;SDS011;9206;50.994;4.538;2023-04-24T08:58:53;10.63;;;4.57;;
18162;SDS011;9206;50.994;4.538;2023-04-24T09:01:50;11.50;;;4.60;;
18162;SDS011;9206;50.994;4.538;2023-04-24T09:04:41;5.67;;;3.80;;
18162;SDS011;9206;50.994;4.538;2023-04-24T09:07:34;7.33;;;3.83;;
18162;SDS011;9206;50.994;4.538;2023-04-24T09:10:30;8.50;;;3.83;;
18162;SDS011;9206;50.994;4.538;2023-04-24T09:13:24;8.57;;;4.47;;
18162;SDS011;9206;50.994;4.538;2023-04-24T09:16:17;12.37;;;4.27;;
18162;SDS011;9206;50.994;4.538;2023-04-24T09:19:11;8.40;;;4.40;;
18162;SDS011;9206;50.994;4.538;2023-04-24T09:22:01;5.82;;;3.92;;
18162;SDS011;9206;50.994;4.538;2023-04-24T09:25:04;6.97;;;4.15;;
18162;SDS011;9206;50.994;4.538;2023-04-24T09:28:00;4.03;;;3.70;;
18162;SDS011;9206;50.994;4.538;2023-04-24T09:33:59;10.43;;;4.38;;
18162;SDS011;9206;50.994;4.538;2023-04-24T09:48:47;10.07;;;4.30;;
18162;SDS011;9206;50.994;4.538;2023-04-24T09:51:37;8.40;;;4.87;;
18162;SDS011;9206;50.994;4.538;2023-04-24T09:54:31;8.73;;;4.20;;
18162;SDS011;9206;50.994;4.538;2023-04-24T09:57:28;12.00;;;4.43;;
18162;SDS011;9206;50.994;4.538;2023-04-24T10:00:40;6.93;;;3.50;;
18162;SDS011;9206;50.994;4.538;2023-04-24T10:03:29;8.37;;;3.17;;
18162;SDS011;9206;50.994;4.538;2023-04-24T10:09:28;8.20;;;3.47;;
18162;SDS011;9206;50.994;4.538;2023-04-24T10:12:16;7.13;;;3.43;;
18162;SDS011;9206;50.994;4.538;2023-04-24T10:15:17;6.30;;;3.23;;
18162;SDS011;9206;50.994;4.538;2023-04-24T10:18:07;10.53;;;3.70;;
18162;SDS011;9206;50.994;4.538;2023-04-24T10:20:58;4.80;;;3.53;;
18162;SDS011;9206;50.994;4.538;2023-04-24T10:27:23;6.17;;;3.60;;
18162;SDS011;9206;50.994;4.538;2023-04-24T10:34:05;6.47;;;3.53;;
18162;SDS011;9206;50.994;4.538;2023-04-24T10:40:35;7.63;;;3.80;;
18162;SDS011;9206;50.994;4.538;2023-04-24T10:44:04;5.93;;;3.67;;
18162;SDS011;9206;50.994;4.538;2023-04-24T10:47:00;8.70;;;4.07;;
18162;SDS011;9206;50.994;4.538;2023-04-24T10:49:51;4.23;;;3.07;;
18162;SDS011;9206;50.994;4.538;2023-04-24T10:52:48;6.27;;;3.23;;
18162;SDS011;9206;50.994;4.538;2023-04-24T10:55:43;4.10;;;2.60;;
18162;SDS011;9206;50.994;4.538;2023-04-24T10:58:36;5.60;;;3.27;;
18162;SDS011;9206;50.994;4.538;2023-04-24T11:05:00;6.90;;;3.03;;
18162;SDS011;9206;50.994;4.538;2023-04-24T11:08:42;3.70;;;2.90;;
18162;SDS011;9206;50.994;4.538;2023-04-24T11:18:19;3.88;;;3.25;;
18162;SDS011;9206;50.994;4.538;2023-04-24T11:28:05;3.60;;;2.92;;
18162;SDS011;9206;50.994;4.538;2023-04-24T11:31:10;4.33;;;2.80;;
18162;SDS011;9206;50.994;4.538;2023-04-24T11:34:32;3.83;;;3.20;;
18162;SDS011;9206;50.994;4.538;2023-04-24T11:37:43;6.53;;;3.47;;
18162;SDS011;9206;50.994;4.538;2023-04-24T11:46:16;4.43;;;2.83;;
18162;SDS011;9206;50.994;4.538;2023-04-24T11:49:20;4.13;;;2.65;;
18162;SDS011;9206;50.994;4.538;2023-04-24T11:52:13;4.05;;;3.13;;
18162;SDS011;9206;50.994;4.538;2023-04-24T11:55:27;5.10;;;2.90;;
18162;SDS011;9206;50.994;4.538;2023-04-24T11:58:36;5.35;;;3.03;;
18162;SDS011;9206;50.994;4.538;2023-04-24T12:05:19;8.07;;;2.90;;
18162;SDS011;9206;50.994;4.538;2023-04-24T12:15:09;3.57;;;3.00;;
18162;SDS011;9206;50.994;4.538;2023-04-24T12:20:51;5.33;;;2.77;;
18162;SDS011;9206;50.994;4.538;2023-04-24T12:23:38;8.20;;;3.70;;
18162;SDS011;9206;50.994;4.538;2023-04-24T12:26:37;4.97;;;3.17;;
18162;SDS011;9206;50.994;4.538;2023-04-24T12:29:30;3.70;;;3.40;;
18162;SDS011;9206;50.994;4.538;2023-04-24T12:32:18;3.10;;;2.80;;
18162;SDS011;9206;50.994;4.538;2023-04-24T12:35:12;5.43;;;3.13;;
18162;SDS011;9206;50.994;4.538;2023-04-24T12:38:10;4.00;;;3.10;;
18162;SDS011;9206;50.994;4.538;2023-04-24T12:41:02;3.83;;;2.80;;
18162;SDS011;9206;50.994;4.538;2023-04-24T12:43:51;4.27;;;2.87;;
18162;SDS011;9206;50.994;4.538;2023-04-24T12:46:41;4.17;;;2.80;;
18162;SDS011;9206;50.994;4.538;2023-04-24T12:49:37;5.23;;;3.67;;
18162;SDS011;9206;50.994;4.538;2023-04-24T12:52:25;3.50;;;3.13;;
18162;SDS011;9206;50.994;4.538;2023-04-24T12:55:17;4.33;;;3.30;;
18162;SDS011;9206;50.994;4.538;2023-04-24T12:58:05;3.93;;;3.00;;
18162;SDS011;9206;50.994;4.538;2023-04-24T13:00:54;3.50;;;3.20;;
18162;SDS011;9206;50.994;4.538;2023-04-24T13:03:43;6.10;;;3.40;;
18162;SDS011;9206;50.994;4.538;2023-04-24T13:06:32;4.97;;;3.17;;
18162;SDS011;9206;50.994;4.538;2023-04-24T13:09:34;3.93;;;2.93;;
18162;SDS011;9206;50.994;4.538;2023-04-24T13:12:38;5.70;;;3.57;;
18162;SDS011;9206;50.994;4.538;2023-04-24T13:15:31;4.07;;;2.77;;
18162;SDS011;9206;50.994;4.538;2023-04-24T13:18:36;4.13;;;2.87;;
18162;SDS011;9206;50.994;4.538;2023-04-24T13:21:29;4.13;;;3.00;;
18162;SDS011;9206;50.994;4.538;2023-04-24T13:24:50;5.07;;;3.10;;
18162;SDS011;9206;50.994;4.538;2023-04-24T13:27:44;3.77;;;2.27;;
18162;SDS011;9206;50.994;4.538;2023-04-24T13:30:36;4.70;;;2.67;;
18162;SDS011;9206;50.994;4.538;2023-04-24T13:36:25;3.33;;;2.40;;
18162;SDS011;9206;50.994;4.538;2023-04-24T13:39:19;2.83;;;2.03;;
18162;SDS011;9206;50.994;4.538;2023-04-24T13:42:08;3.50;;;2.10;;
18162;SDS011;9206;50.994;4.538;2023-04-24T13:44:59;3.80;;;2.60;;
18162;SDS011;9206;50.994;4.538;2023-04-24T13:47:47;4.20;;;2.05;;
18162;SDS011;9206;50.994;4.538;2023-04-24T13:53:42;2.53;;;1.90;;
18162;SDS011;9206;50.994;4.538;2023-04-24T13:56:36;2.97;;;2.20;;
18162;SDS011;9206;50.994;4.538;2023-04-24T13:59:35;3.25;;;2.13;;
18162;SDS011;9206;50.994;4.538;2023-04-24T14:02:55;3.20;;;2.10;;
18162;SDS011;9206;50.994;4.538;2023-04-24T14:05:45;2.70;;;2.20;;
18162;SDS011;9206;50.994;4.538;2023-04-24T14:08:33;5.80;;;2.53;;
18162;SDS011;9206;50.994;4.538;2023-04-24T14:15:20;5.20;;;2.83;;
18162;SDS011;9206;50.994;4.538;2023-04-24T14:18:13;6.37;;;2.63;;
18162;SDS011;9206;50.994;4.538;2023-04-24T14:21:56;2.53;;;2.33;;
18162;SDS011;9206;50.994;4.538;2023-04-24T14:24:48;5.43;;;2.43;;
18162;SDS011;9206;50.994;4.538;2023-04-24T14:31:21;6.43;;;2.53;;
18162;SDS011;9206;50.994;4.538;2023-04-24T14:34:24;4.20;;;2.83;;
18162;SDS011;9206;50.994;4.538;2023-04-24T14:37:14;3.10;;;2.37;;
18162;SDS011;9206;50.994;4.538;2023-04-24T14:40:08;4.57;;;2.28;;
18162;SDS011;9206;50.994;4.538;2023-04-24T14:42:58;2.27;;;1.80;;
18162;SDS011;9206;50.994;4.538;2023-04-24T14:45:52;2.40;;;2.20;;
18162;SDS011;9206;50.994;4.538;2023-04-24T14:48:47;4.30;;;1.83;;
18162;SDS011;9206;50.994;4.538;2023-04-24T14:51:37;3.93;;;2.17;;
18162;SDS011;9206;50.994;4.538;2023-04-24T14:54:45;1.93;;;1.77;;
18162;SDS011;9206;50.994;4.538;2023-04-24T14:57:32;2.27;;;2.07;;
18162;SDS011;9206;50.994;4.538;2023-04-24T15:00:23;3.00;;;1.83;;
18162;SDS011;9206;50.994;4.538;2023-04-24T15:03:16;2.57;;;1.43;;
18162;SDS011;9206;50.994;4.538;2023-04-24T15:06:09;2.33;;;1.80;;
18162;SDS011;9206;50.994;4.538;2023-04-24T15:09:00;1.60;;;1.40;;
18162;SDS011;9206;50.994;4.538;2023-04-24T15:12:06;1.73;;;1.63;;
18162;SDS011;9206;50.994;4.538;2023-04-24T15:18:40;2.63;;;1.33;;
18162;SDS011;9206;50.994;4.538;2023-04-24T15:21:47;2.20;;;1.47;;
18162;SDS011;9206;50.994;4.538;2023-04-24T15:29:20;1.57;;;1.47;;
18162;SDS011;9206;50.994;4.538;2023-04-24T15:32:24;2.60;;;1.30;;
18162;SDS011;9206;50.994;4.538;2023-04-24T15:35:53;1.50;;;1.33;;
18162;SDS011;9206;50.994;4.538;2023-04-24T16:14:24;2.77;;;1.80;;
18162;SDS011;9206;50.994;4.538;2023-04-24T16:21:12;1.50;;;1.40;;
18162;SDS011;9206;50.994;4.538;2023-04-24T16:54:01;2.10;;;1.70;;
18162;SDS011;9206;50.994;4.538;2023-04-24T16:57:38;1.87;;;1.53;;
18162;SDS011;9206;50.994;4.538;2023-04-24T17:04:31;3.17;;;1.90;;
18162;SDS011;9206;50.994;4.538;2023-04-24T17:10:50;1.90;;;1.73;;
18162;SDS011;9206;50.994;4.538;2023-04-24T17:25:28;1.80;;;1.70;;
18162;SDS011;9206;50.994;4.538;2023-04-24T17:31:57;3.33;;;2.20;;
18162;SDS011;9206;50.994;4.538;2023-04-24T17:34:52;4.70;;;2.50;;
18162;SDS011;9206;50.994;4.538;2023-04-24T17:41:10;2.53;;;2.30;;
18162;SDS011;9206;50.994;4.538;2023-04-24T19:13:56;5.27;;;2.73;;
18162;SDS011;9206;50.994;4.538;2023-04-24T19:20:37;5.53;;;3.10;;
18162;SDS011;9206;50.994;4.538;2023-04-24T19:23:27;8.90;;;3.40;;
18162;SDS011;9206;50.994;4.538;2023-04-24T19:33:46;7.23;;;2.50;;
18162;SDS011;9206;50.994;4.538;2023-04-24T19:36:43;9.27;;;3.17;;
18162;SDS011;9206;50.994;4.538;2023-04-24T19:49:46;5.03;;;2.97;;
18162;SDS011;9206;50.994;4.538;2023-04-24T19:59:41;4.33;;;2.87;;
18162;SDS011;9206;50.994;4.538;2023-04-24T20:05:59;8.63;;;3.40;;
18162;SDS011;9206;50.994;4.538;2023-04-24T20:15:45;6.17;;;3.30;;
18162;SDS011;9206;50.994;4.538;2023-04-24T20:18:33;5.97;;;3.20;;
18162;SDS011;9206;50.994;4.538;2023-04-24T20:24:17;5.50;;;3.67;;
18162;SDS011;9206;50.994;4.538;2023-04-24T20:27:17;6.53;;;3.20;;
18162;SDS011;9206;50.994;4.538;2023-04-24T20:33:44;9.23;;;3.77;;
18162;SDS011;9206;50.994;4.538;2023-04-24T20:36:33;4.37;;;3.67;;
18162;SDS011;9206;50.994;4.538;2023-04-24T20:46:51;9.10;;;3.70;;
18162;SDS011;9206;50.994;4.538;2023-04-24T20:49:39;6.43;;;3.47;;
18162;SDS011;9206;50.994;4.538;2023-04-24T20:52:31;8.90;;;3.60;;
18162;SDS011;9206;50.994;4.538;2023-04-24T20:55:22;7.23;;;3.90;;
18162;SDS011;9206;50.994;4.538;2023-04-24T20:58:16;10.33;;;3.97;;
18162;SDS011;9206;50.994;4.538;2023-04-24T21:01:07;9.83;;;4.00;;
18162;SDS011;9206;50.994;4.538;2023-04-24T21:03:55;12.67;;;5.03;;
18162;SDS011;9206;50.994;4.538;2023-04-24T21:07:00;6.80;;;3.83;;
18162;SDS011;9206;50.994;4.538;2023-04-24T21:09:58;6.33;;;3.83;;
18162;SDS011;9206;50.994;4.538;2023-04-24T21:12:52;12.67;;;4.00;;
18162;SDS011;9206;50.994;4.538;2023-04-24T21:15:39;7.20;;;4.07;;
18162;SDS011;9206;50.994;4.538;2023-04-24T21:18:27;12.83;;;4.27;;
18162;SDS011;9206;50.994;4.538;2023-04-24T21:21:28;8.13;;;3.97;;
18162;SDS011;9206;50.994;4.538;2023-04-24T21:24:38;9.37;;;4.50;;
18162;SDS011;9206;50.994;4.538;2023-04-24T21:27:33;12.93;;;4.20;;
18162;SDS011;9206;50.994;4.538;2023-04-24T21:30:27;14.20;;;4.20;;
18162;SDS011;9206;50.994;4.538;2023-04-24T22:16:05;12.90;;;4.80;;
18162;SDS011;9206;50.994;4.538;2023-04-24T22:43:03;11.53;;;4.93;;
18162;SDS011;9206;50.994;4.538;2023-04-24T22:50:12;11.37;;;4.67;;
